KJOT/JOT METAR and TAF weather

Enter ICAO airport designator
Station Type Date Time Source
KJOT METAR 2020/03/31 12:15 UTC NOAA

KJOT 311215Z AUTO 03008KT 10SM OVC018 04/00 A3007 RMK AO2 T00370000


Station Type Date Time Source
KJOT Decoded METAR 2020/03/31 12:15 UTC NOAA

Joliet, Joliet Regional Airport, IL, United States (KJOT) 41-31-05N 088-10-31W
Mar 31, 2020 - 08:15 AM EDT / 2020.03.31 1215 UTC
Wind: from the NNE (030 degrees) at 9 MPH (8 KT):0
Visibility: 10 mile(s):0
Sky conditions: overcast
Temperature: 38.7 F (3.7 C)
Dew Point: 32.0 F (0.0 C)
Relative Humidity: 76%
Pressure (altimeter): 30.07 in. Hg (1018 hPa)
ob: KJOT 311215Z AUTO 03008KT 10SM OVC018 04/00 A3007 RMK AO2 T00370000
cycle: 12

Station Type Date Time Source
KJOT TAF UTC NOAA

Error!

Example: see airport list